Data for 08/21/2005

Time Sea-Level Adjusted Pressure Absolute Pressure Temperature Relative Humidity Dew Point   
(mb) (inHg) (mb) (inHg) (C) (F) (%) (C) (F)
00:05 1023 30.21 852 25.16 16.8 62.2 43 4.1 39.5
00:10 1023 30.21 852 25.16 16 60.8 47 4.9 40.9
00:15 1023 30.21 852 25.16 16 60.8 44 4 39.1
00:20 1023 30.21 852 25.16 16.2 61.1 43 3.6 38.5
00:25 1023 30.21 853 25.19 16.5 61.7 41 3.4 38
00:30 1023 30.21 852 25.16 16.5 61.7 42 3.6 38.4
00:35 1023 30.21 853 25.19 16.6 61.9 40 3.2 37.8
00:40 1023 30.21 853 25.19 16.6 61.8 47 5.3 41.6
00:45 1023 30.21 853 25.19 16.5 61.7 40 3.1 37.6
00:50 1023 30.21 853 25.19 16.4 61.4 41 3.3 38
00:55 1023 30.21 853 25.19 16.2 61.2 41 2.9 37.3
01:00 1023 30.21 853 25.19 16.3 61.4 41 3.1 37.5
01:05 1023 30.21 853 25.19 16.4 61.5 40 2.8 37
01:10 1023 30.21 853 25.19 16.7 62.1 39 2.7 36.8
01:15 1024 30.24 853 25.19 16.7 62 39 2.6 36.7
01:20 1024 30.24 853 25.19 16.4 61.5 41 3.1 37.6
01:25 1024 30.24 853 25.19 16.2 61.1 41 2.9 37.2
01:30 1024 30.24 853 25.19 16.1 61 44 3.8 38.9
01:35 1024 30.24 853 25.19 16.1 61 38 1.9 35.5
01:40 1024 30.24 853 25.19 16.5 61.6 41 3.1 37.7
01:45 1024 30.24 853 25.19 15.8 60.4 43 3.3 37.9
01:50 1024 30.24 853 25.19 15.5 59.9 45 3.6 38.5
01:55 1024 30.24 853 25.19 15.6 60.1 43 3.1 37.6
02:00 1024 30.24 853 25.19 15.9 60.7 38 1.8 35.3
02:05 1024 30.24 853 25.19 16.3 61.4 38 2.2 35.9
02:10 1024 30.24 853 25.19 16.4 61.5 38 2.2 36
02:15 1024 30.24 853 25.19 16.5 61.6 38 2.1 35.8
02:20 1024 30.24 853 25.19 16.4 61.6 39 2.5 36.5
02:25 1024 30.24 853 25.19 16.4 61.5 37 1.6 35
02:30 1024 30.24 853 25.19 16.5 61.8 37 1.9 35.4
02:35 1024 30.24 853 25.19 16.4 61.5 35 1.1 34
02:40 1024 30.24 853 25.19 16.9 62.5 34 1.1 33.9
02:45 1024 30.24 853 25.19 16.7 62.1 40 3.3 37.9
02:50 1024 30.24 853 25.19 16.2 61.2 36 1.2 34.1
02:55 1024 30.24 853 25.19 16.2 61.1 40 2.8 37.1
03:00 1024 30.24 853 25.19 15.6 60.2 40 2.2 36
03:05 1024 30.24 853 25.19 15.7 60.3 39 1.8 35.2
03:10 1024 30.24 853 25.19 15.7 60.3 38 1.6 35
03:15 1024 30.24 853 25.19 16.3 61.3 35 0.9 33.7
03:20 1024 30.24 853 25.19 16.5 61.7 40 3 37.3
03:25 1024 30.24 853 25.19 16.5 61.7 36 1.4 34.4
03:30 1024 30.24 853 25.19 16.4 61.5 37 1.9 35.4
03:35 1024 30.24 853 25.19 15.8 60.4 38 1.5 34.7
03:40 1024 30.24 853 25.19 15.8 60.5 37 1.2 34.2
03:45 1024 30.24 853 25.19 15.8 60.4 38 1.7 35
03:50 1024 30.24 853 25.19 15.5 59.9 39 1.8 35.3
03:55 1024 30.24 853 25.19 15.2 59.3 41 2 35.5
04:00 1024 30.24 853 25.19 15 58.9 40 1.5 34.8
04:05 1024 30.24 853 25.19 14.9 58.9 40 1.5 34.6
04:10 1024 30.24 853 25.19 14.8 58.6 41 1.8 35.3
04:15 1024 30.24 853 25.19 14.8 58.6 40 1.5 34.6
04:20 1024 30.24 853 25.19 15.4 59.7 38 1.3 34.3
04:25 1024 30.24 853 25.19 15.5 59.8 39 1.7 35.1
04:30 1024 30.24 853 25.19 15 59 41 2 35.7
04:35 1024 30.24 853 25.19 14.7 58.4 42 2 35.6
04:40 1024 30.24 853 25.19 14.4 57.8 44 2.5 36.5
04:45 1024 30.24 853 25.19 13.9 57 44 2.1 35.8
04:50 1024 30.24 853 25.19 14.1 57.4 43 1.9 35.3
04:55 1024 30.24 853 25.19 14.3 57.8 43 1.9 35.5
05:00 1024 30.24 853 25.19 14.4 57.9 42 1.8 35.3
05:05 1024 30.24 853 25.19 14.3 57.7 43 2 35.6
05:10 1024 30.24 853 25.19 14.3 57.7 42 1.7 35
05:15 1024 30.24 853 25.19 14.9 58.7 41 1.7 35.1
05:20 1024 30.24 853 25.19 15.3 59.5 39 1.5 34.7
05:25 1024 30.24 853 25.19 15.1 59.1 41 2.1 35.8
05:30 1024 30.24 853 25.19 14.6 58.3 43 2.1 35.8
05:35 1024 30.24 853 25.19 14.1 57.4 44 2.1 35.8
05:40 1024 30.24 853 25.19 14.2 57.5 44 2.1 35.8
05:45 1024 30.24 853 25.19 14 57.3 45 2.2 36
05:50 1024 30.24 853 25.19 14.2 57.6 43 1.8 35.2
05:55 1024 30.24 853 25.19 14.6 58.4 43 2.3 36.2
06:00 1024 30.24 853 25.19 14.6 58.2 44 2.5 36.4
06:05 1024 30.24 853 25.19 14 57.3 46 2.8 37
06:10 1024 30.24 853 25.19 13.5 56.3 47 2.5 36.5
06:15 1024 30.24 853 25.19 13.6 56.4 46 2.2 35.9
06:20 1024 30.24 853 25.19 13.9 57 44 2 35.5
06:25 1024 30.24 853 25.19 14.3 57.7 46 3.1 37.5
06:30 1024 30.24 853 25.19 14.5 58.2 43 2.1 35.8
06:35 1024 30.24 853 25.19 14.4 57.9 44 2.4 36.3
06:40 1024 30.24 853 25.19 14.2 57.5 47 3 37.4
06:45 1024 30.24 853 25.19 14.4 57.9 43 2.2 36
06:50 1024 30.24 854 25.22 14.5 58.1 42 1.8 35.2
06:55 1024 30.24 854 25.22 15 59 40 1.8 35.2
07:00 1024 30.24 854 25.22 15.6 60.1 40 2.1 35.9
07:05 1024 30.24 854 25.22 15.4 59.6 41 2.2 35.9
07:10 1024 30.24 854 25.22 15.2 59.3 42 2.4 36.4
07:15 1024 30.24 854 25.22 14.7 58.5 43 2.4 36.4
07:20 1024 30.24 854 25.22 14.5 58.2 44 2.6 36.6
07:25 1024 30.24 854 25.22 14.6 58.2 44 2.5 36.5
07:30 1024 30.24 854 25.22 14.6 58.3 44 2.7 36.9
07:35 1024 30.24 854 25.22 14.7 58.4 46 3.2 37.7
07:40 1024 30.24 854 25.22 14.8 58.7 44 2.7 36.8
07:45 1025 30.27 854 25.22 15 59.1 43 2.7 36.9
07:50 1025 30.27 854 25.22 15.2 59.3 43 2.8 37.1
07:55 1025 30.27 854 25.22 15.2 59.3 45 3.5 38.3
08:00 1025 30.27 854 25.22 15.3 59.5 44 3.1 37.5
08:05 1025 30.27 854 25.22 15.6 60.2 43 3.3 38
08:10 1025 30.27 854 25.22 15.9 60.6 43 3.5 38.3
08:15 1025 30.27 854 25.22 16.3 61.3 48 5.4 41.7
08:20 1025 30.27 854 25.22 16.8 62.2 40 3.2 37.8
08:25 1025 30.27 854 25.22 17 62.6 41 3.8 38.8
08:30 1025 30.27 854 25.22 17.4 63.4 46 5.9 42.7
08:35 1025 30.27 854 25.22 17.7 63.8 40 4.1 39.4
08:40 1025 30.27 854 25.22 17.8 64 44 5.6 42.1
08:45 1025 30.27 854 25.22 18.1 64.5 40 4.4 39.8
08:50 1025 30.27 854 25.22 18.5 65.3 38 4 39.2
08:55 1025 30.27 854 25.22 19.4 67 37 4.4 40
09:00 1025 30.27 854 25.22 20.1 68.2 35 4.2 39.6
09:05 1025 30.27 854 25.22 20 68.1 36 4.8 40.7
09:10 1025 30.27 854 25.22 20.6 69.1 35 4.9 40.9
09:15 1025 30.27 854 25.22 21.1 70 35 5 41.1
09:20 1025 30.27 854 25.22 21 69.8 36 5.5 41.8
09:25 1025 30.27 854 25.22 21.5 70.7 33 4.9 40.8
09:30 1025 30.27 854 25.22 22 71.6 34 5.6 42
09:35 1025 30.27 854 25.22 21.7 71 33 5.1 41.2
09:40 1025 30.27 854 25.22 21.2 70.2 34 5 41.1
09:45 1025 30.27 854 25.22 20.9 69.7 33 4.2 39.6
09:50 1025 30.27 854 25.22 21.2 70.2 32 4.1 39.3
09:55 1025 30.27 854 25.22 21.5 70.6 32 4.2 39.6
10:00 1025 30.27 854 25.22 21.9 71.5 31 4.1 39.3
10:05 1025 30.27 854 25.22 22.6 72.7 30 4.3 39.8
10:10 1025 30.27 854 25.22 22.8 73 30 4.4 39.9
10:15 1025 30.27 854 25.22 22.6 72.8 29 3.8 38.9
10:20 1025 30.27 854 25.22 22.9 73.3 29 4.2 39.6
10:25 1025 30.27 854 25.22 22.7 72.8 29 4.1 39.5
10:30 1024 30.24 854 25.22 22.9 73.1 29 4.1 39.4
10:35 1024 30.24 854 25.22 23.3 73.9 28 4.2 39.6
10:40 1024 30.24 854 25.22 24 75.1 28 4.6 40.3
10:45 1024 30.24 854 25.22 23.4 74.1 29 4.6 40.2
10:50 1024 30.24 854 25.22 24 75.1 27 4.1 39.4
10:55 1024 30.24 853 25.19 24.4 75.9 27 4.3 39.7
11:00 1024 30.24 853 25.19 24.5 76.2 26 3.9 39
11:05 1024 30.24 853 25.19 25.3 77.5 25 4.2 39.6
11:10 1024 30.24 853 25.19 24.9 76.8 26 4.3 39.8
11:15 1024 30.24 853 25.19 25.4 77.6 25 4 39.2
11:20 1024 30.24 853 25.19 25.8 78.4 25 4.4 39.9
11:25 1024 30.24 853 25.19 25.9 78.6 25 4.8 40.6
11:30 1024 30.24 853 25.19 26.1 79 25 4.7 40.5
11:35 1024 30.24 853 25.19 26.6 79.9 24 4.7 40.5
11:40 1024 30.24 853 25.19 26.9 80.5 24 5 40.9
11:45 1024 30.24 853 25.19 26.8 80.3 24 5 41.1
11:50 1024 30.24 853 25.19 26.8 80.3 25 5.6 42.2
11:55 1024 30.24 853 25.19 27.3 81.1 23 4.6 40.2
12:00 1024 30.24 853 25.19 27.7 81.9 23 5.1 41.2
12:05 1024 30.24 853 25.19 27.8 82.1 22 4.7 40.5
12:10 1024 30.24 853 25.19 28.2 82.7 21 4.4 39.9
12:15 1023 30.21 853 25.19 28.4 83.1 21 4.3 39.8
12:20 1023 30.21 853 25.19 28.6 83.6 22 5 41
12:25 1023 30.21 853 25.19 28.7 83.7 22 5 40.9
12:30 1023 30.21 853 25.19 28.6 83.5 22 5.3 41.5
12:35 1023 30.21 853 25.19 28.8 83.8 22 5.4 41.7
12:40 1023 30.21 853 25.19 28.6 83.4 22 5.2 41.4
12:45 1023 30.21 853 25.19 28.6 83.6 21 4.6 40.2
12:50 1023 30.21 852 25.16 28.5 83.3 22 5 41
12:55 1023 30.21 852 25.16 28.8 83.8 22 5.5 41.9
13:00 1023 30.21 852 25.16 29.1 84.4 21 4.9 40.7
13:05 1023 30.21 852 25.16 29.4 84.8 22 5.5 42
13:10 1023 30.21 852 25.16 29.7 85.4 20 4.9 40.8
13:15 1023 30.21 852 25.16 29.6 85.3 21 5.6 42.1
13:20 1023 30.21 852 25.16 29.7 85.4 21 5.1 41.1
13:25 1023 30.21 852 25.16 30.2 86.3 20 4.8 40.6
13:30 1023 30.21 852 25.16 30.5 86.9 19 4.4 39.9
13:35 1023 30.21 852 25.16 31 87.8 17 3.6 38.5
13:40 1023 30.21 852 25.16 30.3 86.6 19 4.1 39.4
13:45 1023 30.21 852 25.16 30.2 86.3 18 3.3 37.9
13:50 1023 30.21 852 25.16 30.6 87.1 18 3.9 39
13:55 1023 30.21 852 25.16 31.2 88.2 17 4 39.3
14:00 1023 30.21 852 25.16 31.7 89 15 2.4 36.4
14:05 1022 30.18 852 25.16 31.3 88.3 13 -0 31.9
14:10 1022 30.18 852 25.16 31.6 88.9 15 2.2 36
14:15 1022 30.18 852 25.16 31.1 87.9 15 1.5 34.8
14:20 1022 30.18 851 25.13 31.4 88.5 14 1.1 34
14:25 1022 30.18 851 25.13 31.9 89.3 15 2.6 36.7
14:30 1022 30.18 851 25.13 32.3 90.1 13 1.1 33.9
14:35 1022 30.18 851 25.13 32.1 89.7 13 0.6 33.1
14:40 1022 30.18 851 25.13 32.2 89.9 12 -0.1 31.8
14:45 1022 30.18 851 25.13 32.6 90.6 13 1 33.8
14:50 1022 30.18 851 25.13 32.7 90.8 13 0.6 33.2
14:55 1022 30.18 851 25.13 32.9 91.1 13 0.9 33.6
15:00 1022 30.18 851 25.13 32.9 91.2 13 0.8 33.4
15:05 1022 30.18 851 25.13 33 91.4 13 1.5 34.6
15:10 1022 30.18 851 25.13 32.8 91.1 13 1.6 34.8
15:15 1022 30.18 851 25.13 32.2 90 13 0.7 33.3
15:20 1022 30.18 851 25.13 31.4 88.5 13 0.2 32.3
15:25 1021 30.15 851 25.13 31.9 89.5 13 0.8 33.4
15:30 1021 30.15 851 25.13 32.5 90.4 12 -0.5 31
15:35 1021 30.15 851 25.13 32.4 90.3 12 0 32
15:40 1021 30.15 851 25.13 32.6 90.7 12 -0.5 31.2
15:45 1021 30.15 850 25.1 32.9 91.2 13 1 33.8
15:50 1021 30.15 850 25.1 32.9 91.2 12 0.3 32.5
15:55 1021 30.15 850 25.1 31.8 89.2 12 -0.4 31.4
16:00 1021 30.15 850 25.1 31.7 89 13 0.2 32.4
16:05 1021 30.15 850 25.1 32.1 89.8 12 -0.2 31.6
16:10 1021 30.15 850 25.1 32.3 90.2 12 0.2 32.4
16:15 1021 30.15 850 25.1 32.2 90 12 -0.3 31.4
16:20 1021 30.15 850 25.1 32.4 90.4 12 0.1 32.3
16:25 1021 30.15 850 25.1 32.5 90.6 13 0.4 32.8
16:30 1021 30.15 850 25.1 32.4 90.4 12 -0.2 31.6
16:35 1021 30.15 850 25.1 31.5 88.7 13 -0.2 31.7
16:40 1021 30.15 850 25.1 31.5 88.7 13 -0.3 31.4
16:45 1021 30.15 850 25.1 31.8 89.3 13 -0.1 31.9
16:50 1021 30.15 850 25.1 31.6 89 13 0 32
16:55 1021 30.15 850 25.1 31.8 89.2 13 0.2 32.4
17:00 1021 30.15 850 25.1 32.3 90.2 13 0.5 33
17:05 1021 30.15 850 25.1 32.5 90.5 13 1.1 34
17:10 1021 30.15 850 25.1 32.3 90.1 13 0.8 33.4
17:15 1020 30.12 850 25.1 31.8 89.3 13 0.3 32.5
17:20 1020 30.12 850 25.1 31.3 88.3 13 -0.1 31.8
17:25 1020 30.12 850 25.1 32 89.5 13 0.1 32.2
17:30 1020 30.12 850 25.1 32.4 90.3 12 0.3 32.5
17:35 1020 30.12 850 25.1 32.3 90.1 13 0.8 33.5
17:40 1020 30.12 850 25.1 32.3 90.2 12 -0.1 31.8
17:45 1020 30.12 850 25.1 32.1 89.7 12 -0.2 31.6
17:50 1020 30.12 849 25.07 31.5 88.8 12 -1 30.2
17:55 1020 30.12 849 25.07 31.8 89.2 13 -0 31.9
18:00 1020 30.12 849 25.07 32 89.6 13 0.1 32.1
18:05 1020 30.12 849 25.07 31.8 89.3 12 -0.4 31.2
18:10 1020 30.12 849 25.07 31.9 89.4 13 0.7 33.3
18:15 1020 30.12 849 25.07 31.7 89 13 -0.1 31.8
18:20 1020 30.12 849 25.07 31.6 89 12 -0.7 30.7
18:25 1020 30.12 849 25.07 31.4 88.6 13 -0.3 31.5
18:30 1020 30.12 849 25.07 31.3 88.4 15 2.1 35.7
18:35 1020 30.12 849 25.07 31.3 88.3 14 0.7 33.2
18:40 1020 30.12 849 25.07 31.2 88.2 13 0.1 32.2
18:45 1020 30.12 849 25.07 30.7 87.2 13 -0.7 30.7
18:50 1020 30.12 849 25.07 30.3 86.6 14 -0.2 31.7
18:55 1020 30.12 849 25.07 30.3 86.6 14 -0 31.9
19:00 1020 30.12 849 25.07 30.2 86.3 14 -0.4 31.3
19:05 1020 30.12 849 25.07 29.9 85.8 14 -0.2 31.6
19:10 1020 30.12 849 25.07 29.7 85.4 14 -0.3 31.4
19:15 1020 30.12 849 25.07 29.5 85.2 14 -0.5 31.1
19:20 1020 30.12 849 25.07 29.5 85.2 14 -0.5 31.1
19:25 1020 30.12 849 25.07 29.4 85 14 -0.3 31.4
19:30 1020 30.12 849 25.07 29.3 84.7 14 -0.3 31.4
19:35 1020 30.12 849 25.07 29.2 84.5 15 -0.2 31.6
19:40 1020 30.12 849 25.07 29.1 84.5 15 -0.1 31.8
19:45 1020 30.12 849 25.07 29 84.3 15 -0.2 31.6
19:50 1019 30.09 849 25.07 28.9 84.1 15 -0.3 31.5
19:55 1019 30.09 849 25.07 28.8 83.8 15 -0.3 31.4
20:00 1020 30.12 849 25.07 28.7 83.7 19 3.2 37.7
20:05 1020 30.12 849 25.07 28.3 83 26 7 44.7
20:10 1020 30.12 849 25.07 26.7 80.1 32 8.9 48.1
20:15 1020 30.12 849 25.07 25.6 78.2 30 7.1 44.7
20:20 1020 30.12 849 25.07 25.2 77.3 33 7.8 46.1
20:25 1020 30.12 849 25.07 25 77.1 34 8.4 47.1
20:30 1020 30.12 849 25.07 25 77 31 7 44.6
20:35 1020 30.12 849 25.07 24.8 76.6 31 6.5 43.8
20:40 1020 30.12 849 25.07 23.9 74.9 35 7.6 45.8
20:45 1020 30.12 849 25.07 22.8 73.1 35 6.8 44.3
20:50 1020 30.12 849 25.07 22.2 71.9 41 8.6 47.4
20:55 1020 30.12 849 25.07 21.8 71.3 36 6.4 43.4
21:00 1020 30.12 849 25.07 22 71.6 38 7.1 44.8
21:05 1020 30.12 849 25.07 21.8 71.2 36 6.4 43.5
21:10 1020 30.12 849 25.07 21.8 71.2 31 3.9 39
21:15 1020 30.12 849 25.07 21.5 70.7 34 5.2 41.4
21:20 1020 30.12 849 25.07 21.6 70.8 28 2.5 36.5
21:25 1020 30.12 849 25.07 21.9 71.4 28 2.9 37.3
21:30 1020 30.12 849 25.07 21.9 71.4 29 3.5 38.3
21:35 1020 30.12 849 25.07 21.9 71.3 29 3.4 38.2
21:40 1020 30.12 849 25.07 21.9 71.5 28 2.9 37.2
21:45 1020 30.12 849 25.07 22.4 72.2 27 2.7 36.8
21:50 1020 30.12 849 25.07 22.3 72.1 28 3.3 37.9
21:55 1020 30.12 849 25.07 22 71.5 28 3 37.4
22:00 1020 30.12 849 25.07 21.6 70.9 31 4 39.2
22:05 1020 30.12 849 25.07 21.4 70.4 29 3 37.4
22:10 1020 30.12 849 25.07 21.2 70.1 29 2.8 37
22:15 1020 30.12 849 25.07 21.2 70.2 29 2.7 36.8
22:20 1020 30.12 849 25.07 21.1 70 30 2.9 37.3
22:25 1020 30.12 849 25.07 20.8 69.5 30 2.9 37.3
22:30 1020 30.12 849 25.07 20.7 69.3 30 2.7 36.9
22:35 1020 30.12 849 25.07 20.6 69.1 31 2.9 37.3
22:40 1020 30.12 849 25.07 20.3 68.5 31 2.7 36.8
22:45 1020 30.12 849 25.07 20.2 68.4 31 2.8 37.1
22:50 1019 30.09 849 25.07 20.3 68.5 31 2.8 37.1
22:55 1019 30.09 849 25.07 20.1 68.1 33 3.6 38.4
23:00 1019 30.09 849 25.07 20 68 31 2.4 36.3
23:05 1019 30.09 849 25.07 20.4 68.8 30 2.4 36.3
23:10 1020 30.12 849 25.07 20.6 69 29 2.2 36
23:15 1020 30.12 849 25.07 20.6 69 30 2.3 36.2
23:20 1019 30.09 849 25.07 20.4 68.7 31 3.1 37.5
23:25 1019 30.09 849 25.07 20.1 68.3 32 3 37.3
23:30 1019 30.09 849 25.07 20.4 68.7 30 2.2 36
23:35 1019 30.09 849 25.07 20.5 68.9 30 2.5 36.6
23:40 1019 30.09 849 25.07 20.6 69.1 30 2.5 36.4
23:45 1019 30.09 849 25.07 20.3 68.5 31 2.8 37
23:50 1019 30.09 849 25.07 20.2 68.3 31 2.5 36.5
23:55 1019 30.09 849 25.07 20 68.1 32 2.8 37
24:00 1019 30.09 849 25.07 19.9 67.8 32 2.8 37.1